Coastal Inspiration — CFN4970 — position and weather

sailwx.info

Track history (hours):
 
Tides and Currents Weather Stations Pressure Air Temp Water Temp Dewpoint Dewpoint Depression Visibility Wind Speed Wind Dir Waves Ship Positions

Coastal Inspiration

Last reported at 2015-Mar-04 16:33 UTC. Time now 2015-Mar-04 16:44 UTC.
Position N 49°06' W 123°26'.

Length 160 m; draft 6 m.

Type: Passenger vessel. MMSI: 316011408.

Date/timePositionNaut miles runAvg speedWind from/ knotsBaromVisibWave heightAir tempDewpointWater temp
2015-Mar-04 16:33N 49°06' W 123°26'1312.7
2015-Mar-04 15:31N 49°00' W 123°08'1212.9
2015-Mar-04 14:33N 49°04' W 123°26'1919.1
2015-Mar-04 13:33N 49°12' W 123°52'3 2.7
2015-Mar-04 12:31N 49°10' W 123°53'0 0.0
2015-Mar-04 11:18N 49°10' W 123°53'0 0.0
2015-Mar-04 10:30N 49°10' W 123°53'0 0.0
2015-Mar-04 09:30N 49°10' W 123°53'1 1.6
2015-Mar-04 08:33N 49°11' W 123°53'1818.0
2015-Mar-04 07:33N 49°07' W 123°27'1413.7
2015-Mar-04 06:33N 49°00' W 123°08'1313.0
2015-Mar-04 05:33N 49°04' W 123°27'1818.2
2015-Mar-04 04:33N 49°13' W 123°52'1 0.5
2015-Mar-04 03:33N 49°13' W 123°51'1817.9
2015-Mar-04 02:33N 49°06' W 123°25'1312.7
2015-Mar-04 01:33N 49°00' W 123°08'1312.9
2015-Mar-04 00:33N 49°04' W 123°27'1818.1
2015-Mar-03 23:33N 49°13' W 123°51'1 1.1
2015-Mar-03 22:33N 49°13' W 123°52'1918.7
2015-Mar-03 21:33N 49°06' W 123°26'1313.0
2015-Mar-03 20:33N 49°00' W 123°08'1313.1
2015-Mar-03 19:34N 49°04' W 123°27'1918.7
2015-Mar-03 18:34N 49°12' W 123°53'3 3.0
2015-Mar-03 17:34N 49°13' W 123°49'1919.2
2015-Mar-03 16:33N 49°05' W 123°22'1010.5
2015-Mar-03 15:33N 49°00' W 123°08'1211.6
2015-Mar-03 14:34N 49°04' W 123°25'1818.3
2015-Mar-03 13:34N 49°13' W 123°49'4 4.1
2015-Mar-03 12:29N 49°10' W 123°53'0 0.0
2015-Mar-03 11:29N 49°10' W 123°53'0 0.0
2015-Mar-03 10:33N 49°10' W 123°53'0 0.0
2015-Mar-03 09:34N 49°10' W 123°53'2 1.6
2015-Mar-03 08:33N 49°11' W 123°53'1818.3
2015-Mar-03 07:33N 49°07' W 123°26'1413.5
2015-Mar-03 06:33N 49°00' W 123°08'1312.7
2015-Mar-03 05:33N 49°04' W 123°26'1818.1
2015-Mar-03 04:32N 49°13' W 123°51'1 0.5
2015-Mar-03 03:33N 49°13' W 123°51'1817.5
2015-Mar-03 02:33N 49°06' W 123°26'1313.2
2015-Mar-03 01:34N 49°00' W 123°08'1211.9
2015-Mar-03 00:33N 49°04' W 123°25'1818.3
2015-Mar-02 23:33N 49°13' W 123°49'2 2.2
2015-Mar-02 22:33N 49°12' W 123°53'1818.2
2015-Mar-02 21:34N 49°06' W 123°26'1313.4
2015-Mar-02 20:33N 49°00' W 123°08'1111.2
2015-Mar-02 19:33N 49°03' W 123°24'1918.8
2015-Mar-02 18:34N 49°13' W 123°49'2 1.8
2015-Mar-02 17:33N 49°13' W 123°52'1818.4
2015-Mar-02 16:34N 49°06' W 123°26'1313.0
2015-Mar-02 15:34N 49°00' W 123°08'1212.2
2015-Mar-02 14:33N 49°04' W 123°26'1818.2
2015-Mar-02 13:33N 49°13' W 123°50'4 0.7
2015-Mar-02 08:34N 49°10' W 123°53'1615.9
2015-Mar-02 07:33N 49°07' W 123°29'1514.2
2015-Mar-02 06:28N 49°00' W 123°08'1213.4
2015-Mar-02 05:33N 49°04' W 123°26'1817.9
2015-Mar-02 04:34N 49°13' W 123°49'1 1.3
2015-Mar-02 03:33N 49°13' W 123°51'1918.7
2015-Mar-02 02:33N 49°06' W 123°25'1211.6
2015-Mar-02 01:31N 49°00' W 123°08'1313.6
2015-Mar-02 00:33N 49°04' W 123°27'1817.9
2015-Mar-01 23:33N 49°13' W 123°51'0 0.4
2015-Mar-01 22:33N 49°13' W 123°51'1919.3
2015-Mar-01 21:33N 49°05' W 123°24'1110.4
2015-Mar-01 20:28N 49°00' W 123°08'1314.0
2015-Mar-01 19:33N 49°04' W 123°26'1817.7
2015-Mar-01 18:33N 49°13' W 123°50'4 1.8
2015-Mar-01 16:29N 49°10' W 123°53'0 0.0
2015-Mar-01 15:16N 49°10' W 123°53'0 0.0
2015-Mar-01 13:28N 49°10' W 123°53'0 0.0
2015-Mar-01 12:27N 49°10' W 123°53'0 0.0
2015-Mar-01 11:15N 49°10' W 123°53'0 0.0
2015-Mar-01 10:32N 49°10' W 123°53'0 0.0
2015-Mar-01 06:31N 49°10' W 123°53'0 0.0
2015-Mar-01 05:30N 49°10' W 123°53'0 0.0
2015-Mar-01 04:30N 49°10' W 123°53'0 0.0
2015-Mar-01 03:29N 49°10' W 123°53'0 0.0
2015-Mar-01 01:28N 49°10' W 123°53'8 8.8
2015-Mar-01 00:33N 49°11' W 123°41'1919.5
2015-Feb-28 23:33N 49°02' W 123°15'2 1.8
2015-Feb-28 22:34N 49°00' W 123°14'1817.7
2015-Feb-28 21:33N 49°09' W 123°37'11 8.8
2015-Feb-28 20:20N 49°10' W 123°53'912.2
2015-Feb-28 19:33N 49°10' W 123°39'1817.9
2015-Feb-28 18:33N 49°02' W 123°15'2 1.9
2015-Feb-28 17:33N 49°00' W 123°13'1817.6
2015-Feb-28 16:32N 49°09' W 123°37'11 3.4
2015-Feb-28 13:23N 49°10' W 123°53'0 0.0
2015-Feb-28 12:28N 49°10' W 123°53'0 0.0
2015-Feb-28 11:28N 49°10' W 123°53'0 0.0
2015-Feb-28 09:15N 49°10' W 123°53'1 1.2
2015-Feb-28 08:30N 49°11' W 123°53'1717.6
2015-Feb-28 07:33N 49°07' W 123°28'1513.7
2015-Feb-28 06:28N 49°00' W 123°08'1213.3
2015-Feb-28 05:33N 49°04' W 123°25'1817.9
2015-Feb-28 04:33N 49°13' W 123°49'1 1.2
2015-Feb-28 03:33N 49°13' W 123°51'1818.2
2015-Feb-28 02:34N 49°06' W 123°25'1312.4
2015-Feb-28 01:33N 49°00' W 123°08'1312.7
2015-Feb-28 00:33N 49°04' W 123°26'1817.5
2015-Feb-27 23:32N 49°13' W 123°50'1 1.2
2015-Feb-27 22:32N 49°13' W 123°52'1717.9
2015-Feb-27 21:33N 49°06' W 123°27'1413.5
2015-Feb-27 20:32N 49°00' W 123°08'1212.3
2015-Feb-27 19:33N 49°04' W 123°26'1817.8
2015-Feb-27 18:33N 49°13' W 123°49'2 1.8
2015-Feb-27 17:34N 49°13' W 123°52'1817.7
2015-Feb-27 16:33N 49°06' W 123°27'1313.2
2015-Feb-27 15:32N 49°00' W 123°08'1313.1
2015-Feb-27 14:34N 49°04' W 123°26'1717.3
2015-Feb-27 13:34N 49°13' W 123°49'2 0.4
2015-Feb-27 08:33N 49°12' W 123°53'2019.7
2015-Feb-27 07:33N 49°05' W 123°24'1211.9
2015-Feb-27 06:33N 49°00' W 123°08'1312.8
2015-Feb-27 05:33N 49°04' W 123°26'1818.2
2015-Feb-27 04:33N 49°12' W 123°52'1 0.8
2015-Feb-27 03:33N 49°13' W 123°50'1918.9
2015-Feb-27 02:33N 49°06' W 123°23'1211.7
2015-Feb-27 01:34N 49°00' W 123°08'1212.2
2015-Feb-27 00:33N 49°04' W 123°26'1817.7
2015-Feb-26 23:33N 49°13' W 123°49'3 3.0
2015-Feb-26 22:33N 49°12' W 123°53'1817.9
2015-Feb-26 21:33N 49°07' W 123°27'1414.0
2015-Feb-26 20:34N 49°00' W 123°08'1211.7
2015-Feb-26 19:33N 49°04' W 123°25'1818.3
2015-Feb-26 18:33N 49°13' W 123°49'2 2.3
2015-Feb-26 17:33N 49°12' W 123°52'1919.2
2015-Feb-26 16:33N 49°06' W 123°25'1212.4
2015-Feb-26 15:34N 49°00' W 123°08'1313.1
2015-Feb-26 14:34N 49°04' W 123°27'1717.2
2015-Feb-26 13:33N 49°13' W 123°50'4 3.8
2015-Feb-26 12:33N 49°10' W 123°53'0 0.0
2015-Feb-26 11:32N 49°10' W 123°53'0 0.0
2015-Feb-26 09:34N 49°10' W 123°53'1 1.1
2015-Feb-26 08:32N 49°11' W 123°53'1717.2
2015-Feb-26 07:33N 49°07' W 123°28'1514.6
2015-Feb-26 06:33N 49°00' W 123°08'1212.4
2015-Feb-26 05:33N 49°05' W 123°26'1817.8
2015-Feb-26 04:33N 49°13' W 123°50'1 0.5
2015-Feb-26 03:33N 49°13' W 123°51'1818.4
2015-Feb-26 02:33N 49°06' W 123°25'1312.5
2015-Feb-26 01:33N 49°00' W 123°08'1313.0
2015-Feb-26 00:33N 49°04' W 123°27'1817.8
2015-Feb-25 23:33N 49°13' W 123°51'1 0.8
2015-Feb-25 22:33N 49°12' W 123°52'1817.6
2015-Feb-25 21:34N 49°06' W 123°27'1413.8
2015-Feb-25 20:34N 49°00' W 123°08'1211.6
2015-Feb-25 19:33N 49°04' W 123°25'1818.4
2015-Feb-25 18:33N 49°13' W 123°49'0 0.4
2015-Feb-25 17:33N 49°13' W 123°50'1818.4
2015-Feb-25 16:33N 49°05' W 123°24'1211.9
2015-Feb-25 15:33N 49°00' W 123°08'1313.1
2015-Feb-25 14:33N 49°04' W 123°27'1717.3
2015-Feb-25 13:33N 49°13' W 123°50'4 4.1
2015-Feb-25 12:30N 49°10' W 123°53'0 0.0
2015-Feb-25 11:33N 49°10' W 123°53'0 0.0
2015-Feb-25 10:34N 49°10' W 123°53'0 0.0
2015-Feb-25 09:33N 49°10' W 123°53'1 1.5
2015-Feb-25 08:33N 49°11' W 123°53'1717.3
2015-Feb-25 07:33N 49°07' W 123°28'1514.5
2015-Feb-25 06:33N 49°00' W 123°08'1211.8
2015-Feb-25 05:33N 49°04' W 123°25'1918.6
2015-Feb-25 04:33N 49°13' W 123°50'2 2.1
2015-Feb-25 03:34N 49°12' W 123°53'1818.0
2015-Feb-25 02:34N 49°07' W 123°27'1413.9
2015-Feb-25 01:33N 49°00' W 123°08'1211.6
2015-Feb-25 00:34N 49°03' W 123°25'1918.6
2015-Feb-24 23:34N 49°13' W 123°49'2 2.0
2015-Feb-24 22:33N 49°12' W 123°52'1818.1
2015-Feb-24 21:33N 49°06' W 123°26'1313.4
2015-Feb-24 20:33N 49°00' W 123°08'1111.5
2015-Feb-24 19:34N 49°03' W 123°25'1918.8
2015-Feb-24 18:33N 49°13' W 123°49'2 1.7
2015-Feb-24 17:33N 49°13' W 123°52'1818.4
2015-Feb-24 16:34N 49°06' W 123°26'1313.2
2015-Feb-24 15:33N 49°00' W 123°08'1211.9
2015-Feb-24 14:34N 49°04' W 123°25'1818.1
2015-Feb-24 13:34N 49°13' W 123°49'4 4.2
2015-Feb-24 12:29N 49°10' W 123°53'0 0.0
2015-Feb-24 11:30N 49°10' W 123°53'0 0.0
2015-Feb-24 10:24N 49°10' W 123°53'0 0.0
2015-Feb-24 09:31N 49°10' W 123°53'3 3.0
2015-Feb-24 08:33N 49°13' W 123°52'1918.8
2015-Feb-24 07:33N 49°06' W 123°25'1312.7
2015-Feb-24 06:33N 49°00' W 123°08'1111.1
2015-Feb-24 05:33N 49°03' W 123°24'1919.2
2015-Feb-24 04:33N 49°13' W 123°50'2 1.7
2015-Feb-24 03:33N 49°12' W 123°52'1919.4
2015-Feb-24 02:33N 49°06' W 123°24'1212.1
2015-Feb-24 01:33N 49°00' W 123°08'1212.4
2015-Feb-24 00:33N 49°04' W 123°26'1818.4
2015-Feb-23 23:33N 49°13' W 123°51'1 1.1
2015-Feb-23 22:33N 49°12' W 123°53'1818.5
2015-Feb-23 21:33N 49°06' W 123°26'1313.2
2015-Feb-23 20:33N 49°00' W 123°08'1312.6
2015-Feb-23 19:33N 49°04' W 123°26'1817.6
2015-Feb-23 18:33N 49°13' W 123°50'0 0.3
2015-Feb-23 17:33N 49°13' W 123°49'1717.0
2015-Feb-23 16:33N 49°06' W 123°25'1312.8
2015-Feb-23 15:34N 49°00' W 123°08'1212.2
2015-Feb-23 14:33N 49°04' W 123°26'1818.1
2015-Feb-23 13:33N 49°13' W 123°50'4 3.9
2015-Feb-23 12:33N 49°10' W 123°53'0 0.1
2015-Feb-23 11:33N 49°10' W 123°53'0 0.0
2015-Feb-23 10:33N 49°10' W 123°53'0 0.0
2015-Feb-23 09:32N 49°10' W 123°53'2 1.6
2015-Feb-23 08:33N 49°11' W 123°53'1817.5
2015-Feb-23 07:33N 49°07' W 123°27'1414.4
2015-Feb-23 06:33N 49°00' W 123°08'1110.7
2015-Feb-23 05:33N 49°03' W 123°24'1919.3
2015-Feb-23 04:33N 49°13' W 123°49'2 2.5
2015-Feb-23 03:33N 49°12' W 123°53'1818.2
2015-Feb-23 02:34N 49°06' W 123°27'1413.6
2015-Feb-23 01:33N 49°00' W 123°08'1211.5
2015-Feb-23 00:33N 49°04' W 123°25'1918.8
2015-Feb-22 23:33N 49°13' W 123°50'2 2.4
2015-Feb-22 22:34N 49°12' W 123°53'1817.9
2015-Feb-22 21:33N 49°06' W 123°27'1413.8
2015-Feb-22 20:33N 49°00' W 123°08'1212.0
2015-Feb-22 19:33N 49°04' W 123°26'1818.2
2015-Feb-22 18:33N 49°13' W 123°50'3 3.4
2015-Feb-22 17:33N 49°11' W 123°53'  
Track history (hours):
 
Tides and Currents Weather Stations Pressure Air Temp Water Temp Dewpoint Dewpoint Depression Visibility Wind Speed Wind Dir Waves Ship Positions

Coastal Inspiration

Last reported at 2015-Mar-04 16:33 UTC. Time now 2015-Mar-04 16:44 UTC.
Position N 49°06' W 123°26'.

Length 160 m; draft 6 m.

Type: Passenger vessel. MMSI: 316011408.

Date/timePositionNaut miles runAvg speedWind from/ knotsBaromVisibWave heightAir tempDewpointWater temp
2015-Mar-04 16:33N 49°06' W 123°26'1312.7
2015-Mar-04 15:31N 49°00' W 123°08'1212.9
2015-Mar-04 14:33N 49°04' W 123°26'1919.1
2015-Mar-04 13:33N 49°12' W 123°52'3 2.7
2015-Mar-04 12:31N 49°10' W 123°53'0 0.0
2015-Mar-04 11:18N 49°10' W 123°53'0 0.0
2015-Mar-04 10:30N 49°10' W 123°53'0 0.0
2015-Mar-04 09:30N 49°10' W 123°53'1 1.6
2015-Mar-04 08:33N 49°11' W 123°53'1818.0
2015-Mar-04 07:33N 49°07' W 123°27'1413.7
2015-Mar-04 06:33N 49°00' W 123°08'1313.0
2015-Mar-04 05:33N 49°04' W 123°27'1818.2
2015-Mar-04 04:33N 49°13' W 123°52'1 0.5
2015-Mar-04 03:33N 49°13' W 123°51'1817.9
2015-Mar-04 02:33N 49°06' W 123°25'1312.7
2015-Mar-04 01:33N 49°00' W 123°08'1312.9
2015-Mar-04 00:33N 49°04' W 123°27'1818.1
2015-Mar-03 23:33N 49°13' W 123°51'1 1.1
2015-Mar-03 22:33N 49°13' W 123°52'1918.7
2015-Mar-03 21:33N 49°06' W 123°26'1313.0
2015-Mar-03 20:33N 49°00' W 123°08'1313.1
2015-Mar-03 19:34N 49°04' W 123°27'1918.7
2015-Mar-03 18:34N 49°12' W 123°53'3 3.0
2015-Mar-03 17:34N 49°13' W 123°49'1919.2
2015-Mar-03 16:33N 49°05' W 123°22'1010.5
2015-Mar-03 15:33N 49°00' W 123°08'1211.6
2015-Mar-03 14:34N 49°04' W 123°25'1818.3
2015-Mar-03 13:34N 49°13' W 123°49'4 4.1
2015-Mar-03 12:29N 49°10' W 123°53'0 0.0
2015-Mar-03 11:29N 49°10' W 123°53'0 0.0
2015-Mar-03 10:33N 49°10' W 123°53'0 0.0
2015-Mar-03 09:34N 49°10' W 123°53'2 1.6
2015-Mar-03 08:33N 49°11' W 123°53'1818.3
2015-Mar-03 07:33N 49°07' W 123°26'1413.5
2015-Mar-03 06:33N 49°00' W 123°08'1312.7
2015-Mar-03 05:33N 49°04' W 123°26'1818.1
2015-Mar-03 04:32N 49°13' W 123°51'1 0.5
2015-Mar-03 03:33N 49°13' W 123°51'1817.5
2015-Mar-03 02:33N 49°06' W 123°26'1313.2
2015-Mar-03 01:34N 49°00' W 123°08'1211.9
2015-Mar-03 00:33N 49°04' W 123°25'1818.3
2015-Mar-02 23:33N 49°13' W 123°49'2 2.2
2015-Mar-02 22:33N 49°12' W 123°53'1818.2
2015-Mar-02 21:34N 49°06' W 123°26'1313.4
2015-Mar-02 20:33N 49°00' W 123°08'1111.2
2015-Mar-02 19:33N 49°03' W 123°24'1918.8
2015-Mar-02 18:34N 49°13' W 123°49'2 1.8
2015-Mar-02 17:33N 49°13' W 123°52'1818.4
2015-Mar-02 16:34N 49°06' W 123°26'1313.0
2015-Mar-02 15:34N 49°00' W 123°08'1212.2
2015-Mar-02 14:33N 49°04' W 123°26'1818.2
2015-Mar-02 13:33N 49°13' W 123°50'4 0.7
2015-Mar-02 08:34N 49°10' W 123°53'1615.9
2015-Mar-02 07:33N 49°07' W 123°29'1514.2
2015-Mar-02 06:28N 49°00' W 123°08'1213.4
2015-Mar-02 05:33N 49°04' W 123°26'1817.9
2015-Mar-02 04:34N 49°13' W 123°49'1 1.3
2015-Mar-02 03:33N 49°13' W 123°51'1918.7
2015-Mar-02 02:33N 49°06' W 123°25'1211.6
2015-Mar-02 01:31N 49°00' W 123°08'1313.6
2015-Mar-02 00:33N 49°04' W 123°27'1817.9
2015-Mar-01 23:33N 49°13' W 123°51'0 0.4
2015-Mar-01 22:33N 49°13' W 123°51'1919.3
2015-Mar-01 21:33N 49°05' W 123°24'1110.4
2015-Mar-01 20:28N 49°00' W 123°08'1314.0
2015-Mar-01 19:33N 49°04' W 123°26'1817.7
2015-Mar-01 18:33N 49°13' W 123°50'4 1.8
2015-Mar-01 16:29N 49°10' W 123°53'0 0.0
2015-Mar-01 15:16N 49°10' W 123°53'0 0.0
2015-Mar-01 13:28N 49°10' W 123°53'0 0.0
2015-Mar-01 12:27N 49°10' W 123°53'0 0.0
2015-Mar-01 11:15N 49°10' W 123°53'0 0.0
2015-Mar-01 10:32N 49°10' W 123°53'0 0.0
2015-Mar-01 06:31N 49°10' W 123°53'0 0.0
2015-Mar-01 05:30N 49°10' W 123°53'0 0.0
2015-Mar-01 04:30N 49°10' W 123°53'0 0.0
2015-Mar-01 03:29N 49°10' W 123°53'0 0.0
2015-Mar-01 01:28N 49°10' W 123°53'8 8.8
2015-Mar-01 00:33N 49°11' W 123°41'1919.5
2015-Feb-28 23:33N 49°02' W 123°15'2 1.8
2015-Feb-28 22:34N 49°00' W 123°14'1817.7
2015-Feb-28 21:33N 49°09' W 123°37'11 8.8
2015-Feb-28 20:20N 49°10' W 123°53'912.2
2015-Feb-28 19:33N 49°10' W 123°39'1817.9
2015-Feb-28 18:33N 49°02' W 123°15'2 1.9
2015-Feb-28 17:33N 49°00' W 123°13'1817.6
2015-Feb-28 16:32N 49°09' W 123°37'11 3.4
2015-Feb-28 13:23N 49°10' W 123°53'0 0.0
2015-Feb-28 12:28N 49°10' W 123°53'0 0.0
2015-Feb-28 11:28N 49°10' W 123°53'0 0.0
2015-Feb-28 09:15N 49°10' W 123°53'1 1.2
2015-Feb-28 08:30N 49°11' W 123°53'1717.6
2015-Feb-28 07:33N 49°07' W 123°28'1513.7
2015-Feb-28 06:28N 49°00' W 123°08'1213.3
2015-Feb-28 05:33N 49°04' W 123°25'1817.9
2015-Feb-28 04:33N 49°13' W 123°49'1 1.2
2015-Feb-28 03:33N 49°13' W 123°51'1818.2
2015-Feb-28 02:34N 49°06' W 123°25'1312.4
2015-Feb-28 01:33N 49°00' W 123°08'1312.7
2015-Feb-28 00:33N 49°04' W 123°26'1817.5
2015-Feb-27 23:32N 49°13' W 123°50'1 1.2
2015-Feb-27 22:32N 49°13' W 123°52'1717.9
2015-Feb-27 21:33N 49°06' W 123°27'1413.5
2015-Feb-27 20:32N 49°00' W 123°08'1212.3
2015-Feb-27 19:33N 49°04' W 123°26'1817.8
2015-Feb-27 18:33N 49°13' W 123°49'2 1.8
2015-Feb-27 17:34N 49°13' W 123°52'1817.7
2015-Feb-27 16:33N 49°06' W 123°27'1313.2
2015-Feb-27 15:32N 49°00' W 123°08'1313.1
2015-Feb-27 14:34N 49°04' W 123°26'1717.3
2015-Feb-27 13:34N 49°13' W 123°49'2 0.4
2015-Feb-27 08:33N 49°12' W 123°53'2019.7
2015-Feb-27 07:33N 49°05' W 123°24'1211.9
2015-Feb-27 06:33N 49°00' W 123°08'1312.8
2015-Feb-27 05:33N 49°04' W 123°26'1818.2
2015-Feb-27 04:33N 49°12' W 123°52'1 0.8
2015-Feb-27 03:33N 49°13' W 123°50'1918.9
2015-Feb-27 02:33N 49°06' W 123°23'1211.7
2015-Feb-27 01:34N 49°00' W 123°08'1212.2
2015-Feb-27 00:33N 49°04' W 123°26'1817.7
2015-Feb-26 23:33N 49°13' W 123°49'3 3.0
2015-Feb-26 22:33N 49°12' W 123°53'1817.9
2015-Feb-26 21:33N 49°07' W 123°27'1414.0
2015-Feb-26 20:34N 49°00' W 123°08'1211.7
2015-Feb-26 19:33N 49°04' W 123°25'1818.3
2015-Feb-26 18:33N 49°13' W 123°49'2 2.3
2015-Feb-26 17:33N 49°12' W 123°52'1919.2
2015-Feb-26 16:33N 49°06' W 123°25'1212.4
2015-Feb-26 15:34N 49°00' W 123°08'1313.1
2015-Feb-26 14:34N 49°04' W 123°27'1717.2
2015-Feb-26 13:33N 49°13' W 123°50'4 3.8
2015-Feb-26 12:33N 49°10' W 123°53'0 0.0
2015-Feb-26 11:32N 49°10' W 123°53'0 0.0
2015-Feb-26 09:34N 49°10' W 123°53'1 1.1
2015-Feb-26 08:32N 49°11' W 123°53'1717.2
2015-Feb-26 07:33N 49°07' W 123°28'1514.6
2015-Feb-26 06:33N 49°00' W 123°08'1212.4
2015-Feb-26 05:33N 49°05' W 123°26'1817.8
2015-Feb-26 04:33N 49°13' W 123°50'1 0.5
2015-Feb-26 03:33N 49°13' W 123°51'1818.4
2015-Feb-26 02:33N 49°06' W 123°25'1312.5
2015-Feb-26 01:33N 49°00' W 123°08'1313.0
2015-Feb-26 00:33N 49°04' W 123°27'1817.8
2015-Feb-25 23:33N 49°13' W 123°51'1 0.8
2015-Feb-25 22:33N 49°12' W 123°52'1817.6
2015-Feb-25 21:34N 49°06' W 123°27'1413.8
2015-Feb-25 20:34N 49°00' W 123°08'1211.6
2015-Feb-25 19:33N 49°04' W 123°25'1818.4
2015-Feb-25 18:33N 49°13' W 123°49'0 0.4
2015-Feb-25 17:33N 49°13' W 123°50'1818.4
2015-Feb-25 16:33N 49°05' W 123°24'1211.9
2015-Feb-25 15:33N 49°00' W 123°08'1313.1
2015-Feb-25 14:33N 49°04' W 123°27'1717.3
2015-Feb-25 13:33N 49°13' W 123°50'4 4.1
2015-Feb-25 12:30N 49°10' W 123°53'0 0.0
2015-Feb-25 11:33N 49°10' W 123°53'0 0.0
2015-Feb-25 10:34N 49°10' W 123°53'0 0.0
2015-Feb-25 09:33N 49°10' W 123°53'1 1.5
2015-Feb-25 08:33N 49°11' W 123°53'1717.3
2015-Feb-25 07:33N 49°07' W 123°28'1514.5
2015-Feb-25 06:33N 49°00' W 123°08'1211.8
2015-Feb-25 05:33N 49°04' W 123°25'1918.6
2015-Feb-25 04:33N 49°13' W 123°50'2 2.1
2015-Feb-25 03:34N 49°12' W 123°53'1818.0
2015-Feb-25 02:34N 49°07' W 123°27'1413.9
2015-Feb-25 01:33N 49°00' W 123°08'1211.6
2015-Feb-25 00:34N 49°03' W 123°25'1918.6
2015-Feb-24 23:34N 49°13' W 123°49'2 2.0
2015-Feb-24 22:33N 49°12' W 123°52'1818.1
2015-Feb-24 21:33N 49°06' W 123°26'1313.4
2015-Feb-24 20:33N 49°00' W 123°08'1111.5
2015-Feb-24 19:34N 49°03' W 123°25'1918.8
2015-Feb-24 18:33N 49°13' W 123°49'2 1.7
2015-Feb-24 17:33N 49°13' W 123°52'1818.4
2015-Feb-24 16:34N 49°06' W 123°26'1313.2
2015-Feb-24 15:33N 49°00' W 123°08'1211.9
2015-Feb-24 14:34N 49°04' W 123°25'1818.1
2015-Feb-24 13:34N 49°13' W 123°49'4 4.2
2015-Feb-24 12:29N 49°10' W 123°53'0 0.0
2015-Feb-24 11:30N 49°10' W 123°53'0 0.0
2015-Feb-24 10:24N 49°10' W 123°53'0 0.0
2015-Feb-24 09:31N 49°10' W 123°53'3 3.0
2015-Feb-24 08:33N 49°13' W 123°52'1918.8
2015-Feb-24 07:33N 49°06' W 123°25'1312.7
2015-Feb-24 06:33N 49°00' W 123°08'1111.1
2015-Feb-24 05:33N 49°03' W 123°24'1919.2
2015-Feb-24 04:33N 49°13' W 123°50'2 1.7
2015-Feb-24 03:33N 49°12' W 123°52'1919.4
2015-Feb-24 02:33N 49°06' W 123°24'1212.1
2015-Feb-24 01:33N 49°00' W 123°08'1212.4
2015-Feb-24 00:33N 49°04' W 123°26'1818.4
2015-Feb-23 23:33N 49°13' W 123°51'1 1.1
2015-Feb-23 22:33N 49°12' W 123°53'1818.5
2015-Feb-23 21:33N 49°06' W 123°26'1313.2
2015-Feb-23 20:33N 49°00' W 123°08'1312.6
2015-Feb-23 19:33N 49°04' W 123°26'1817.6
2015-Feb-23 18:33N 49°13' W 123°50'0 0.3
2015-Feb-23 17:33N 49°13' W 123°49'1717.0
2015-Feb-23 16:33N 49°06' W 123°25'1312.8
2015-Feb-23 15:34N 49°00' W 123°08'1212.2
2015-Feb-23 14:33N 49°04' W 123°26'1818.1
2015-Feb-23 13:33N 49°13' W 123°50'4 3.9
2015-Feb-23 12:33N 49°10' W 123°53'0 0.1
2015-Feb-23 11:33N 49°10' W 123°53'0 0.0
2015-Feb-23 10:33N 49°10' W 123°53'0 0.0
2015-Feb-23 09:32N 49°10' W 123°53'2 1.6
2015-Feb-23 08:33N 49°11' W 123°53'1817.5
2015-Feb-23 07:33N 49°07' W 123°27'1414.4
2015-Feb-23 06:33N 49°00' W 123°08'1110.7
2015-Feb-23 05:33N 49°03' W 123°24'1919.3
2015-Feb-23 04:33N 49°13' W 123°49'2 2.5
2015-Feb-23 03:33N 49°12' W 123°53'1818.2
2015-Feb-23 02:34N 49°06' W 123°27'1413.6
2015-Feb-23 01:33N 49°00' W 123°08'1211.5
2015-Feb-23 00:33N 49°04' W 123°25'1918.8
2015-Feb-22 23:33N 49°13' W 123°50'2 2.4
2015-Feb-22 22:34N 49°12' W 123°53'1817.9
2015-Feb-22 21:33N 49°06' W 123°27'1413.8
2015-Feb-22 20:33N 49°00' W 123°08'1212.0
2015-Feb-22 19:33N 49°04' W 123°26'1818.2
2015-Feb-22 18:33N 49°13' W 123°50'3 3.4
2015-Feb-22 17:33N 49°11' W 123°53'  

Dump ship's entire track history